Time;durP1;ratioP1;P1;durP2;ratioP2;P2;SDS_P1;SDS_P2;PMS_P1;PMS_P2;Temp;Humidity;BMP_temperature;BMP_pressure;BME280_temperature;BME280_humidity;BME280_pressure;Samples;Min_cycle;Max_cycle;Signal;HPM_P1;HPM_P2
2022/07/30 00:02:17;;;;;;;;;7.00;6.33;;;;;23.40;42.47;101179.23;110608;1258;19580;-63
2022/07/30 00:04:45;;;;;;;;;6.00;6.00;;;;;23.38;42.51;101174.67;110772;1258;20588;-63
2022/07/30 00:07:12;;;;;;;;;7.00;6.00;;;;;23.31;42.70;101172.48;110787;1258;19126;-64
2022/07/30 00:09:40;;;;;;;;;6.00;6.00;;;;;23.37;42.61;101175.82;110733;1258;19582;-64
2022/07/30 00:12:07;;;;;;;;;5.00;5.00;;;;;23.42;42.47;101178.45;110748;1257;20253;-64
2022/07/30 00:14:34;;;;;;;;;6.00;6.00;;;;;23.38;42.53;101177.83;110755;1258;19668;-63
2022/07/30 00:17:02;;;;;;;;;6.33;6.00;;;;;23.34;42.55;101173.71;110765;1258;22960;-64
2022/07/30 00:19:29;;;;;;;;;5.00;5.00;;;;;23.24;42.85;101173.67;110771;1258;24296;-63
2022/07/30 00:21:57;;;;;;;;;6.00;5.00;;;;;23.07;42.94;101177.48;110723;1258;23448;-63
2022/07/30 00:24:24;;;;;;;;;7.00;6.00;;;;;23.09;43.13;101175.41;110704;1258;19533;-63
2022/07/30 00:26:52;;;;;;;;;7.00;5.33;;;;;23.19;42.87;101180.30;110723;1258;20330;-61
2022/07/30 00:29:19;;;;;;;;;5.00;5.00;;;;;23.14;43.09;101182.13;110752;1258;19286;-64
2022/07/30 00:31:46;;;;;;;;;6.00;6.00;;;;;23.08;43.31;101182.88;110577;1258;19868;-63
2022/07/30 00:34:14;;;;;;;;;6.00;5.00;;;;;23.11;43.20;101173.80;110451;1258;22779;-63
2022/07/30 00:36:41;;;;;;;;;6.00;6.00;;;;;23.08;43.40;101171.02;110454;1260;19123;-63
2022/07/30 00:39:09;;;;;;;;;6.00;5.50;;;;;22.86;43.55;101165.64;110752;1258;19520;-65
2022/07/30 00:41:37;;;;;;;;;5.67;5.67;;;;;22.79;43.67;101157.10;110745;1258;20316;-62
2022/07/30 00:44:04;;;;;;;;;6.67;6.00;;;;;22.64;44.08;101153.19;110776;1258;19638;-63
2022/07/30 00:46:31;;;;;;;;;6.00;6.00;;;;;22.69;44.14;101147.97;110783;1258;23541;-63
2022/07/30 00:48:59;;;;;;;;;6.00;6.00;;;;;22.56;44.25;101145.96;110702;1258;20413;-62
2022/07/30 00:51:26;;;;;;;;;6.00;5.33;;;;;22.54;44.20;101144.77;110721;1258;19156;-63
2022/07/30 00:53:53;;;;;;;;;8.00;7.33;;;;;22.51;44.30;101143.80;110733;1258;19657;-64
2022/07/30 00:56:21;;;;;;;;;5.33;5.33;;;;;22.43;44.60;101145.01;110744;1258;20601;-64
2022/07/30 00:58:48;;;;;;;;;6.33;6.00;;;;;22.58;44.36;101138.85;110805;1258;19209;-61
2022/07/30 01:01:16;;;;;;;;;6.67;6.00;;;;;22.72;44.08;101133.16;110772;1258;19504;-62
2022/07/30 01:03:43;;;;;;;;;5.33;5.00;;;;;22.62;44.22;101127.39;110729;1258;20247;-63
2022/07/30 01:06:10;;;;;;;;;7.33;6.67;;;;;22.64;44.17;101111.90;110732;1258;21622;-62
2022/07/30 01:08:38;;;;;;;;;5.33;5.33;;;;;22.58;44.20;101103.84;110698;1258;19419;-61
2022/07/30 01:11:05;;;;;;;;;6.50;6.00;;;;;22.57;44.15;101098.81;110751;1258;20793;-62
2022/07/30 01:13:32;;;;;;;;;8.00;7.33;;;;;22.64;43.88;101095.50;110755;1258;19353;-62
2022/07/30 01:16:00;;;;;;;;;8.00;8.00;;;;;22.58;44.16;101098.60;110595;1258;24019;-63
2022/07/30 01:19:47;;;;;;;;;6.00;5.00;;;;;22.45;44.09;101103.70;110496;1259;20343;-62
2022/07/30 01:21:15;;;;;;;;;6.33;6.33;;;;;22.47;44.27;101101.69;110436;1258;19781;-60
2022/07/30 01:23:43;;;;;;;;;4.67;4.67;;;;;22.58;43.93;101093.62;110448;1259;19456;-61
2022/07/30 01:26:10;;;;;;;;;9.00;9.00;;;;;22.48;43.88;101088.43;110471;1259;23527;-63
2022/07/30 01:28:37;;;;;;;;;8.33;6.67;;;;;22.47;44.06;101092.30;110534;1259;19353;-62
2022/07/30 01:31:05;;;;;;;;;6.00;6.00;;;;;22.56;43.80;101097.38;110446;1259;19830;-65
2022/07/30 01:33:32;;;;;;;;;8.00;6.50;;;;;22.66;43.52;101106.63;110468;1259;27767;-62
2022/07/30 01:35:59;;;;;;;;;6.00;6.00;;;;;22.51;43.85;101102.83;110521;1258;23834;-64
2022/07/30 01:38:27;;;;;;;;;6.67;6.67;;;;;22.58;43.61;101100.98;110425;1259;19644;-64
2022/07/30 01:40:54;;;;;;;;;6.50;6.50;;;;;22.40;43.73;101100.66;110453;1258;23033;-61
2022/07/30 01:43:22;;;;;;;;;5.00;5.00;;;;;22.45;43.91;101100.34;110583;1258;21509;-60
2022/07/30 01:45:49;;;;;;;;;6.67;5.67;;;;;22.57;43.69;101099.91;110591;1259;19510;-62
2022/07/30 01:48:17;;;;;;;;;8.33;8.00;;;;;22.59;43.45;101097.16;110523;1258;20290;-62
2022/07/30 01:50:44;;;;;;;;;6.67;6.00;;;;;22.44;43.98;101098.02;110502;1258;23608;-62
2022/07/30 01:53:11;;;;;;;;;7.00;6.67;;;;;22.40;43.89;101098.31;110457;1259;19502;-63
2022/07/30 01:55:39;;;;;;;;;4.33;4.33;;;;;22.54;43.73;101095.58;110504;1258;20293;-63
2022/07/30 01:58:06;;;;;;;;;6.00;6.00;;;;;22.73;43.54;101095.73;110532;1259;19260;-62
2022/07/30 02:00:34;;;;;;;;;9.33;9.00;;;;;22.70;43.30;101097.30;110493;1259;19746;-63
2022/07/30 02:03:01;;;;;;;;;6.00;5.67;;;;;22.69;43.38;101097.83;110469;1259;22227;-63
2022/07/30 02:05:28;;;;;;;;;7.33;7.33;;;;;22.75;43.31;101098.98;110460;1261;19224;-63
2022/07/30 02:07:56;;;;;;;;;6.00;6.00;;;;;22.72;43.39;101099.14;110516;1259;19571;-62
2022/07/30 02:10:23;;;;;;;;;6.67;6.33;;;;;22.71;43.53;101099.77;110480;1260;20316;-62
2022/07/30 02:12:51;;;;;;;;;7.33;7.33;;;;;22.76;43.34;101099.59;110458;1260;19685;-63
2022/07/30 02:15:18;;;;;;;;;6.50;6.50;;;;;22.68;43.47;101095.79;110519;1259;19518;-63
2022/07/30 02:17:45;;;;;;;;;7.67;5.67;;;;;22.66;43.59;101099.62;110603;1258;20501;-62
2022/07/30 02:20:13;;;;;;;;;11.00;10.00;;;;;22.60;43.67;101099.42;110613;1258;23473;-62
2022/07/30 02:22:40;;;;;;;;;5.67;5.67;;;;;22.66;43.69;101097.82;110681;1258;19500;-63
2022/07/30 02:25:09;;;;;;;;;8.33;6.33;;;;;22.62;43.77;101095.69;110635;1258;20287;-65
2022/07/30 02:27:36;;;;;;;;;8.00;7.67;;;;;22.53;44.00;101101.86;110636;1258;19907;-63
2022/07/30 02:30:04;;;;;;;;;7.00;7.00;;;;;22.53;43.84;101106.98;110674;1258;19633;-62
2022/07/30 02:32:31;;;;;;;;;7.33;7.00;;;;;22.55;43.78;101110.63;110758;1258;21821;-61
2022/07/30 02:34:59;;;;;;;;;6.50;6.50;;;;;22.59;43.68;101105.05;110664;1258;23623;-63
2022/07/30 02:37:26;;;;;;;;;8.33;8.33;;;;;22.58;43.82;101097.32;110705;1258;19483;-63
2022/07/30 02:39:54;;;;;;;;;10.50;10.50;;;;;22.52;43.89;101085.36;110681;1258;20286;-64
2022/07/30 02:42:21;;;;;;;;;8.33;8.33;;;;;22.58;43.81;101079.22;110664;1258;19194;-63
2022/07/30 02:44:48;;;;;;;;;10.00;9.00;;;;;22.63;43.86;101085.57;110658;1258;19747;-63
2022/07/30 02:47:16;;;;;;;;;12.33;11.33;;;;;22.51;44.02;101092.78;110609;1258;20369;-64
2022/07/30 02:49:43;;;;;;;;;12.00;11.67;;;;;22.54;44.03;101090.86;110681;1258;19433;-63
2022/07/30 02:52:12;;;;;;;;;9.67;9.67;;;;;22.38;44.22;101090.61;110637;1258;23872;-65
2022/07/30 02:54:39;;;;;;;;;13.33;13.00;;;;;22.42;44.25;101084.45;110659;1258;23414;-61
2022/07/30 02:57:07;;;;;;;;;9.00;9.00;;;;;22.41;44.14;101085.68;110548;1258;22610;-64
2022/07/30 02:59:34;;;;;;;;;15.00;12.00;;;;;22.37;44.41;101084.95;110590;1258;19933;-63
2022/07/30 03:02:01;;;;;;;;;14.67;13.67;;;;;22.33;44.63;101081.52;110669;1258;20256;-63
2022/07/30 03:04:29;;;;;;;;;20.00;16.33;;;;;22.22;44.92;101076.94;110678;1258;19370;-64
2022/07/30 03:06:56;;;;;;;;;20.00;15.67;;;;;22.32;44.48;101072.98;110639;1258;20916;-63
2022/07/30 03:09:23;;;;;;;;;19.33;18.33;;;;;22.36;44.37;101076.05;110602;1258;20290;-63
2022/07/30 03:11:51;;;;;;;;;20.67;20.00;;;;;22.24;44.73;101078.70;110722;1258;19280;-64
2022/07/30 03:14:18;;;;;;;;;21.67;19.00;;;;;22.33;44.50;101078.86;110602;1256;23886;-62
2022/07/30 03:16:46;;;;;;;;;20.00;18.33;;;;;22.32;44.66;101080.27;110676;1258;20481;-62
2022/07/30 03:19:13;;;;;;;;;19.67;17.67;;;;;22.25;44.75;101086.02;110649;1258;19347;-63
2022/07/30 03:21:41;;;;;;;;;18.33;16.00;;;;;22.28;44.72;101085.58;110632;1258;19611;-65
2022/07/30 03:24:08;;;;;;;;;15.33;14.33;;;;;22.28;44.60;101086.46;110595;1258;20321;-63
2022/07/30 03:26:35;;;;;;;;;13.00;13.00;;;;;22.20;44.68;101086.85;110590;1258;22999;-64
2022/07/30 03:29:03;;;;;;;;;16.00;14.33;;;;;22.18;44.75;101082.56;110626;1258;20085;-63
2022/07/30 03:31:30;;;;;;;;;18.00;15.00;;;;;22.11;45.00;101078.35;110658;1258;20441;-63
2022/07/30 03:33:57;;;;;;;;;17.33;14.33;;;;;22.06;44.82;101074.52;110679;1258;19945;-62
2022/07/30 03:36:25;;;;;;;;;17.00;14.00;;;;;22.08;44.98;101076.48;110688;1258;22932;-63
2022/07/30 03:38:53;;;;;;;;;14.67;14.00;;;;;22.02;45.14;101073.17;110646;1258;20323;-64
2022/07/30 03:41:20;;;;;;;;;15.33;13.00;;;;;22.10;44.89;101071.77;110585;1258;19346;-64
2022/07/30 03:43:48;;;;;;;;;13.67;12.33;;;;;22.12;44.96;101064.77;110784;1258;19791;-63
2022/07/30 03:46:15;;;;;;;;;15.33;13.67;;;;;22.10;44.93;101060.87;110628;1258;21708;-62
2022/07/30 03:48:43;;;;;;;;;15.00;14.50;;;;;22.12;44.86;101063.16;110656;1258;19227;-62
2022/07/30 03:51:10;;;;;;;;;18.00;17.00;;;;;22.14;44.76;101060.55;110660;1258;19637;-65
2022/07/30 03:53:37;;;;;;;;;14.00;14.00;;;;;22.21;44.81;101064.48;110606;1258;20271;-63
2022/07/30 03:56:05;;;;;;;;;14.00;13.67;;;;;22.23;44.56;101062.84;110612;1258;23055;-62
2022/07/30 03:58:32;;;;;;;;;15.00;14.00;;;;;22.27;44.70;101058.69;110717;1256;19584;-64
2022/07/30 04:01:00;;;;;;;;;17.00;13.33;;;;;22.11;44.87;101057.33;110581;1258;20324;-63
2022/07/30 04:03:27;;;;;;;;;13.00;11.00;;;;;22.09;44.78;101056.03;110561;1258;20061;-60
2022/07/30 04:05:55;;;;;;;;;13.67;13.00;;;;;22.12;45.03;101056.08;110659;1258;19624;-60
2022/07/30 04:08:22;;;;;;;;;10.67;10.00;;;;;22.10;45.08;101055.92;110578;1258;20353;-64
2022/07/30 04:10:50;;;;;;;;;15.00;14.00;;;;;22.08;45.18;101057.77;110683;1258;23126;-63
2022/07/30 04:13:17;;;;;;;;;13.00;13.00;;;;;22.17;44.88;101057.51;110644;1258;19571;-63
2022/07/30 04:15:45;;;;;;;;;14.67;13.33;;;;;22.04;45.09;101061.95;110644;1258;22813;-64
2022/07/30 04:18:12;;;;;;;;;13.50;13.50;;;;;21.97;45.16;101061.59;110649;1258;19250;-65
2022/07/30 04:20:39;;;;;;;;;17.67;14.00;;;;;22.07;45.11;101057.88;110634;1258;19756;-64
2022/07/30 04:23:07;;;;;;;;;17.33;15.00;;;;;22.22;44.77;101051.89;110618;1258;20205;-61
2022/07/30 04:25:34;;;;;;;;;12.33;10.67;;;;;22.24;44.45;101047.27;110725;1258;23501;-63
2022/07/30 04:28:02;;;;;;;;;13.00;10.33;;;;;22.10;44.95;101042.80;110694;1257;19559;-61
2022/07/30 04:30:29;;;;;;;;;13.67;12.33;;;;;22.12;44.88;101047.73;110610;1258;20753;-65
2022/07/30 04:32:56;;;;;;;;;11.67;10.00;;;;;22.19;44.86;101046.38;110579;1258;19309;-64
2022/07/30 04:35:24;;;;;;;;;15.67;13.00;;;;;22.32;44.35;101041.35;110698;1258;22798;-62
2022/07/30 04:37:51;;;;;;;;;15.00;15.00;;;;;22.49;44.16;101044.42;110685;1258;20320;-63
2022/07/30 04:40:18;;;;;;;;;11.33;10.67;;;;;22.42;44.13;101042.79;110640;1258;19225;-64
2022/07/30 04:42:46;;;;;;;;;12.33;12.33;;;;;22.39;44.29;101040.65;110624;1258;19701;-63
2022/07/30 04:45:13;;;;;;;;;12.33;11.00;;;;;22.36;44.28;101036.71;110650;1258;20559;-63
2022/07/30 04:47:40;;;;;;;;;10.00;10.00;;;;;22.43;44.17;101034.76;110627;1258;19192;-63
2022/07/30 04:50:08;;;;;;;;;9.67;9.67;;;;;22.54;43.89;101027.62;110636;1258;19447;-62
2022/07/30 04:52:35;;;;;;;;;10.33;9.33;;;;;22.54;43.95;101022.11;110647;1258;21206;-61
2022/07/30 04:55:03;;;;;;;;;12.00;12.00;;;;;22.57;43.98;101018.20;110560;1258;19393;-63
2022/07/30 04:57:30;;;;;;;;;11.00;11.00;;;;;22.51;44.05;101014.56;110648;1258;21284;-61
2022/07/30 04:59:57;;;;;;;;;11.33;9.67;;;;;22.61;43.90;101007.89;110627;1258;20740;-61
2022/07/30 05:02:25;;;;;;;;;11.00;10.00;;;;;22.55;43.95;101011.45;110573;1258;19204;-60
2022/07/30 05:04:52;;;;;;;;;10.67;10.00;;;;;22.50;44.03;101007.87;110686;1258;19902;-64
2022/07/30 05:07:20;;;;;;;;;9.33;9.33;;;;;22.59;43.96;101012.63;110669;1258;21708;-64
2022/07/30 05:09:48;;;;;;;;;10.50;9.50;;;;;22.68;43.57;101007.73;110669;1258;20185;-65
2022/07/30 05:12:16;;;;;;;;;8.33;8.33;;;;;22.82;43.53;101006.26;110735;1258;22161;-63
2022/07/30 05:14:43;;;;;;;;;10.00;9.00;;;;;22.79;43.45;101007.03;110757;1258;20341;-63
2022/07/30 05:17:10;;;;;;;;;12.33;12.00;;;;;22.67;43.72;101002.25;110551;1258;19424;-63
2022/07/30 05:19:38;;;;;;;;;12.00;10.67;;;;;22.66;43.78;100998.43;110601;1258;22454;-62
2022/07/30 05:22:06;;;;;;;;;7.00;7.00;;;;;22.69;43.85;100999.05;110548;1259;20490;-63
2022/07/30 05:24:33;;;;;;;;;6.67;6.67;;;;;22.78;43.66;100999.31;110500;1258;19260;-64
2022/07/30 05:27:01;;;;;;;;;6.00;6.00;;;;;22.89;43.67;101004.22;110457;1260;21263;-64
2022/07/30 05:29:28;;;;;;;;;9.00;8.00;;;;;22.91;43.47;101007.02;110448;1259;20290;-64
2022/07/30 05:31:56;;;;;;;;;9.00;7.00;;;;;22.92;43.66;101010.05;110467;1261;19359;-64
2022/07/30 05:34:23;;;;;;;;;7.33;7.00;;;;;22.75;43.92;101013.02;110463;1259;19757;-64
2022/07/30 05:36:51;;;;;;;;;9.33;9.33;;;;;22.63;44.20;101016.89;110439;1259;20285;-64
2022/07/30 05:39:18;;;;;;;;;8.67;8.67;;;;;22.67;44.36;101017.93;110422;1261;19315;-64
2022/07/30 05:41:45;;;;;;;;;10.33;9.33;;;;;22.48;45.14;101019.50;110390;1259;19661;-62
2022/07/30 05:44:13;;;;;;;;;7.00;6.50;;;;;22.39;45.36;101025.22;110372;1259;20565;-64
2022/07/30 05:46:40;;;;;;;;;7.00;7.00;;;;;22.33;45.75;101026.73;110476;1260;19264;-63
2022/07/30 05:49:08;;;;;;;;;7.00;7.00;;;;;22.26;46.15;101023.29;110396;1258;23769;-63
2022/07/30 05:51:36;;;;;;;;;7.00;7.00;;;;;22.38;46.16;101021.76;110401;1261;20721;-64
2022/07/30 05:54:03;;;;;;;;;11.00;10.67;;;;;22.43;46.01;101024.11;110430;1259;19258;-63
2022/07/30 05:56:30;;;;;;;;;9.00;9.00;;;;;22.40;46.03;101023.72;110466;1259;19643;-65
2022/07/30 05:58:58;;;;;;;;;10.50;10.50;;;;;22.27;46.28;101023.98;110459;1260;20344;-64
2022/07/30 06:01:25;;;;;;;;;10.00;9.67;;;;;22.15;46.85;101024.11;110494;1258;23544;-65
2022/07/30 06:03:53;;;;;;;;;10.00;9.00;;;;;22.19;46.80;101023.08;110638;1258;19401;-64
2022/07/30 06:06:20;;;;;;;;;10.67;10.00;;;;;22.21;47.08;101017.39;110493;1258;21698;-63
2022/07/30 06:08:48;;;;;;;;;10.00;9.00;;;;;22.23;46.78;101019.65;110541;1258;19400;-64
2022/07/30 06:11:16;;;;;;;;;7.33;7.00;;;;;22.29;46.97;101021.84;110452;1259;24353;-61
2022/07/30 06:13:43;;;;;;;;;7.00;7.00;;;;;22.21;47.01;101023.43;110545;1258;20529;-63
2022/07/30 06:16:11;;;;;;;;;7.00;7.00;;;;;22.07;47.27;101022.80;110531;1259;19271;-64
2022/07/30 06:18:38;;;;;;;;;6.00;6.00;;;;;22.12;47.24;101020.27;110442;1260;19452;-65
2022/07/30 06:21:05;;;;;;;;;6.00;6.00;;;;;22.23;47.18;101017.01;110543;1258;20426;-63
2022/07/30 06:23:33;;;;;;;;;8.33;7.00;;;;;22.22;47.08;101015.40;110318;1261;19310;-61
2022/07/30 06:26:00;;;;;;;;;7.00;6.33;;;;;22.32;47.12;101015.72;110424;1260;23707;-63
2022/07/30 06:28:29;;;;;;;;;7.00;7.00;;;;;22.36;46.95;101017.52;110423;1259;23623;-61
2022/07/30 06:30:56;;;;;;;;;9.00;7.00;;;;;22.43;47.12;101019.86;110569;1259;19282;-64
2022/07/30 06:33:24;;;;;;;;;6.33;6.33;;;;;22.41;46.92;101021.18;110476;1258;20058;-63
2022/07/30 06:35:51;;;;;;;;;7.00;6.67;;;;;22.36;47.21;101019.10;110257;1261;20273;-62
2022/07/30 06:38:18;;;;;;;;;6.00;6.00;;;;;22.30;47.50;101021.36;110456;1259;19252;-65
2022/07/30 06:40:46;;;;;;;;;7.00;6.00;;;;;22.32;47.42;101022.56;110538;1258;19526;-63
2022/07/30 06:43:14;;;;;;;;;9.33;7.67;;;;;22.39;47.35;101022.73;110530;1258;20724;-63
2022/07/30 06:45:41;;;;;;;;;7.67;7.00;;;;;22.44;47.33;101024.30;110538;1259;19384;-66
2022/07/30 06:48:08;;;;;;;;;6.50;6.00;;;;;22.54;47.12;101024.20;110338;1260;19615;-62
2022/07/30 06:50:36;;;;;;;;;6.50;6.00;;;;;22.54;47.18;101022.90;110674;1258;20194;-58
2022/07/30 06:53:03;;;;;;;;;6.00;6.00;;;;;22.66;46.91;101020.21;110678;1258;19283;-59
2022/07/30 06:55:30;;;;;;;;;8.33;8.33;;;;;22.76;46.90;101015.34;110682;1258;19754;-55
2022/07/30 06:57:58;;;;;;;;;10.00;10.00;;;;;22.91;46.77;101015.80;110615;1257;20466;-58
2022/07/30 07:00:26;;;;;;;;;10.00;9.00;;;;;22.95;46.66;101011.51;110630;1258;19328;-56
2022/07/30 07:02:53;;;;;;;;;11.00;10.00;;;;;22.92;46.56;101007.70;110644;1258;19516;-58
2022/07/30 07:05:22;;;;;;;;;9.00;9.00;;;;;22.88;46.70;101008.10;110505;1258;21008;-67
2022/07/30 07:07:50;;;;;;;;;6.67;6.67;;;;;22.96;46.53;101007.77;110650;1258;23543;-65
2022/07/30 07:10:19;;;;;;;;;7.67;7.67;;;;;23.05;46.34;101009.43;110459;1258;20533;-66
2022/07/30 07:12:47;;;;;;;;;9.67;8.33;;;;;23.13;46.09;101000.48;110678;1258;20652;-63
2022/07/30 07:15:14;;;;;;;;;6.33;6.33;;;;;23.17;45.71;101000.64;110670;1258;22504;-64
2022/07/30 07:17:42;;;;;;;;;7.00;7.00;;;;;22.91;45.76;100995.91;110715;1258;19546;-66
2022/07/30 07:20:09;;;;;;;;;6.67;6.00;;;;;22.89;45.87;100999.02;110718;1258;20348;-65
2022/07/30 07:22:37;;;;;;;;;9.33;7.67;;;;;23.06;45.50;100992.13;110769;1258;23934;-66
2022/07/30 07:25:04;;;;;;;;;9.67;7.00;;;;;23.23;45.41;100993.14;110761;1258;19584;-66
2022/07/30 07:27:32;;;;;;;;;7.00;7.00;;;;;23.29;45.32;100994.81;110708;1258;20675;-63
2022/07/30 07:29:59;;;;;;;;;7.00;7.00;;;;;23.01;45.42;100994.56;110761;1258;23579;-63
2022/07/30 07:32:27;;;;;;;;;6.00;6.00;;;;;23.07;45.66;100989.38;110621;1259;19476;-65
2022/07/30 07:34:54;;;;;;;;;7.67;6.67;;;;;23.27;45.45;100990.89;110628;1258;22629;-63
2022/07/30 07:37:21;;;;;;;;;7.00;7.00;;;;;23.22;45.07;100988.30;110713;1258;19272;-61
2022/07/30 07:39:49;;;;;;;;;9.00;9.00;;;;;23.10;44.84;100986.58;110701;1257;19648;-61
2022/07/30 07:42:16;;;;;;;;;5.00;5.00;;;;;23.08;44.69;100984.17;110451;1258;313363;-61
2022/07/30 07:44:44;;;;;;;;;7.00;7.00;;;;;22.98;44.16;100982.11;110720;1258;19164;-63
2022/07/30 07:47:11;;;;;;;;;5.67;5.67;;;;;22.92;43.95;100976.13;110616;1258;20521;-66
2022/07/30 07:49:39;;;;;;;;;6.33;6.00;;;;;22.88;43.97;100977.61;110788;1258;20578;-65
2022/07/30 07:52:06;;;;;;;;;5.33;5.00;;;;;22.94;43.78;100980.06;110649;1258;23686;-63
2022/07/30 07:54:33;;;;;;;;;9.00;7.00;;;;;22.74;43.46;100979.20;110719;1257;19566;-65
2022/07/30 07:57:02;;;;;;;;;7.00;6.33;;;;;22.78;43.42;100973.84;110743;1258;20874;-64
2022/07/30 07:59:30;;;;;;;;;6.00;6.00;;;;;23.00;43.07;100970.71;110733;1258;19267;-70
2022/07/30 08:01:57;;;;;;;;;5.33;5.33;;;;;23.15;43.05;100969.17;110802;1258;19733;-65
2022/07/30 08:04:25;;;;;;;;;9.00;6.00;;;;;23.31;42.90;100968.26;110707;1258;22102;-65
2022/07/30 08:06:52;;;;;;;;;5.00;5.00;;;;;23.45;42.76;100967.50;110622;1257;19291;-66
2022/07/30 08:09:20;;;;;;;;;5.33;5.33;;;;;23.60;42.78;100963.63;110746;1258;19468;-64
2022/07/30 08:11:47;;;;;;;;;5.00;5.00;;;;;23.72;42.50;100964.82;110686;1257;20409;-65
2022/07/30 08:14:14;;;;;;;;;5.00;5.00;;;;;23.81;42.41;100962.27;110614;1258;19412;-66
2022/07/30 08:16:42;;;;;;;;;5.00;5.00;;;;;23.82;42.37;100962.85;110763;1258;23075;-66
2022/07/30 08:19:09;;;;;;;;;6.00;6.00;;;;;23.91;42.07;100956.05;110519;1258;20379;-63
2022/07/30 08:21:36;;;;;;;;;7.00;7.00;;;;;24.04;41.78;100953.73;110617;1258;19210;-62
2022/07/30 08:24:04;;;;;;;;;6.00;6.00;;;;;24.06;41.38;100950.05;110680;1258;19475;-65
2022/07/30 08:26:32;;;;;;;;;5.00;5.00;;;;;24.03;40.94;100951.48;110544;1258;20361;-66
2022/07/30 08:28:59;;;;;;;;;6.00;6.00;;;;;24.00;40.51;100950.75;110736;1258;19372;-64
2022/07/30 08:31:26;;;;;;;;;6.00;6.00;;;;;24.01;40.23;100947.69;110702;1258;20627;-65
2022/07/30 08:33:54;;;;;;;;;6.50;6.00;;;;;24.06;40.08;100943.61;110552;1257;20274;-63
2022/07/30 08:36:21;;;;;;;;;5.67;5.67;;;;;24.11;39.98;100944.27;110570;1258;19425;-65
2022/07/30 08:38:48;;;;;;;;;5.67;5.00;;;;;24.14;40.41;100934.73;110672;1258;21096;-64
2022/07/30 08:41:16;;;;;;;;;5.67;5.67;;;;;24.20;40.07;100936.56;110628;1258;20467;-64
2022/07/30 08:43:43;;;;;;;;;4.33;4.33;;;;;24.22;39.62;100930.39;110660;1258;19157;-66
2022/07/30 08:46:11;;;;;;;;;9.33;7.00;;;;;24.30;39.80;100932.84;110596;1258;19584;-66
2022/07/30 08:48:38;;;;;;;;;3.00;3.00;;;;;24.29;39.53;100929.11;110650;1258;20313;-62
2022/07/30 08:51:06;;;;;;;;;5.00;5.00;;;;;23.99;38.90;100929.10;110685;1258;19259;-64
2022/07/30 08:53:34;;;;;;;;;6.00;5.00;;;;;23.99;39.06;100931.16;110609;1258;19556;-66
2022/07/30 08:56:01;;;;;;;;;5.00;5.00;;;;;24.02;38.88;100928.91;110735;1258;20419;-65
2022/07/30 08:58:29;;;;;;;;;6.00;5.67;;;;;23.92;39.48;100935.70;110685;1258;19457;-66
2022/07/30 09:00:56;;;;;;;;;5.00;3.67;;;;;23.54;40.53;100935.35;110706;1258;19504;-63
2022/07/30 09:03:24;;;;;;;;;5.00;5.00;;;;;23.59;40.85;100934.54;110667;1258;20254;-66
2022/07/30 09:05:51;;;;;;;;;6.00;5.00;;;;;23.71;41.08;100934.50;110748;1258;19282;-66
2022/07/30 09:08:19;;;;;;;;;7.00;6.00;;;;;23.79;41.09;100932.95;110736;1257;19511;-66
2022/07/30 09:10:46;;;;;;;;;6.50;6.50;;;;;23.72;41.44;100933.45;110792;1257;22733;-66
2022/07/30 09:13:13;;;;;;;;;5.67;5.67;;;;;23.71;41.79;100935.21;110694;1258;21821;-66
2022/07/30 09:15:41;;;;;;;;;6.00;6.00;;;;;23.71;42.08;100937.95;110728;1258;23586;-65
2022/07/30 09:18:08;;;;;;;;;6.00;6.00;;;;;23.53;42.50;100941.70;110731;1258;21775;-66
2022/07/30 09:20:36;;;;;;;;;6.00;6.00;;;;;23.53;42.80;100936.30;110621;1258;19193;-63
2022/07/30 09:23:04;;;;;;;;;6.00;6.00;;;;;23.51;43.01;100943.14;110789;1258;23337;-64
2022/07/30 09:25:31;;;;;;;;;6.00;5.67;;;;;23.46;43.32;100946.85;110741;1258;20511;-65
2022/07/30 09:27:58;;;;;;;;;6.00;5.50;;;;;23.38;43.58;100939.84;110735;1258;25995;-66
2022/07/30 09:30:26;;;;;;;;;6.00;6.00;;;;;23.40;43.85;100942.94;110666;1258;19497;-66
2022/07/30 09:32:53;;;;;;;;;5.67;5.00;;;;;23.34;44.06;100946.52;110649;1258;21669;-65
2022/07/30 09:35:20;;;;;;;;;6.33;6.33;;;;;23.23;44.18;100943.67;110710;1258;19383;-65
2022/07/30 09:37:48;;;;;;;;;5.67;5.33;;;;;23.35;44.32;100939.81;110799;1258;19516;-66
2022/07/30 09:40:15;;;;;;;;;6.00;6.00;;;;;23.31;44.54;100947.14;110752;1258;20334;-66
2022/07/30 09:42:43;;;;;;;;;5.00;5.00;;;;;23.22;44.94;100941.17;110738;1258;19220;-65
2022/07/30 09:45:10;;;;;;;;;6.00;6.00;;;;;23.28;44.76;100938.39;110723;1258;20030;-66
2022/07/30 09:47:37;;;;;;;;;5.67;5.00;;;;;23.33;44.81;100938.80;110754;1258;21743;-66
2022/07/30 09:50:05;;;;;;;;;6.00;6.00;;;;;23.42;44.72;100934.52;110651;1258;24038;-65
2022/07/30 09:52:32;;;;;;;;;6.00;6.00;;;;;23.52;44.63;100931.92;110791;1258;19926;-66
2022/07/30 09:55:00;;;;;;;;;6.00;6.00;;;;;23.46;44.88;100931.16;110755;1258;20425;-66
2022/07/30 09:57:27;;;;;;;;;6.00;6.00;;;;;23.36;45.08;100935.60;110757;1258;19225;-65
2022/07/30 09:59:54;;;;;;;;;6.00;6.00;;;;;23.29;45.31;100930.24;110757;1258;19574;-66
2022/07/30 10:02:22;;;;;;;;;7.00;7.00;;;;;23.43;45.22;100928.09;110739;1258;20288;-66
2022/07/30 10:04:49;;;;;;;;;9.00;7.00;;;;;23.45;45.16;100933.36;110810;1258;19373;-66
2022/07/30 10:07:16;;;;;;;;;7.00;7.00;;;;;23.46;44.84;100931.73;110730;1258;23530;-66
2022/07/30 10:09:44;;;;;;;;;5.00;5.00;;;;;23.52;44.75;100933.38;110705;1258;20394;-66
2022/07/30 10:12:11;;;;;;;;;8.00;6.50;;;;;23.43;45.10;100932.98;110619;1258;19269;-66
2022/07/30 10:14:39;;;;;;;;;9.00;7.00;;;;;23.45;45.53;100933.29;110638;1258;19617;-66
2022/07/30 10:17:06;;;;;;;;;7.00;6.67;;;;;23.43;45.74;100932.38;110811;1258;20365;-66
2022/07/30 10:19:35;;;;;;;;;7.00;7.00;;;;;23.32;46.42;100940.42;110772;1258;19338;-66
2022/07/30 10:22:03;;;;;;;;;6.50;6.00;;;;;23.15;47.01;100938.47;110746;1258;24323;-65
2022/07/30 10:24:30;;;;;;;;;6.00;6.00;;;;;23.03;47.32;100946.02;110739;1258;20287;-67
2022/07/30 10:26:57;;;;;;;;;6.00;6.00;;;;;22.93;47.53;100941.54;110736;1258;19223;-66
2022/07/30 10:29:25;;;;;;;;;6.00;6.00;;;;;22.99;47.46;100944.68;110768;1257;19604;-65
2022/07/30 10:31:52;;;;;;;;;6.00;6.00;;;;;22.93;47.63;100941.71;110796;1258;20359;-66
2022/07/30 10:34:20;;;;;;;;;6.00;5.00;;;;;22.90;47.63;100942.46;110721;1258;19361;-66
2022/07/30 10:36:47;;;;;;;;;9.00;7.00;;;;;22.94;47.75;100945.67;110722;1258;19412;-64
2022/07/30 10:39:15;;;;;;;;;7.00;7.00;;;;;22.81;48.12;100943.88;110733;1258;20482;-65
2022/07/30 10:41:42;;;;;;;;;9.00;8.33;;;;;22.80;48.30;100950.94;110762;1258;19224;-66
2022/07/30 10:44:10;;;;;;;;;9.00;7.00;;;;;22.61;48.65;100951.92;110774;1258;19912;-66
2022/07/30 10:46:37;;;;;;;;;9.00;9.00;;;;;22.81;48.50;100951.88;110756;1258;23086;-68
2022/07/30 10:49:04;;;;;;;;;11.67;10.00;;;;;22.84;48.36;100955.52;110744;1258;19359;-66
2022/07/30 10:51:32;;;;;;;;;9.50;9.00;;;;;22.76;48.73;100954.90;110723;1258;19570;-66
2022/07/30 10:53:59;;;;;;;;;8.33;6.67;;;;;22.89;48.41;100953.73;110754;1258;20310;-65
2022/07/30 10:56:27;;;;;;;;;7.00;7.00;;;;;22.98;48.21;100957.17;110701;1258;19124;-66
2022/07/30 10:58:54;;;;;;;;;8.33;7.67;;;;;22.79;48.61;100960.86;110786;1258;19473;-64
2022/07/30 11:01:21;;;;;;;;;7.00;7.00;;;;;22.56;49.68;100969.80;110643;1258;21814;-63
2022/07/30 11:03:49;;;;;;;;;6.67;6.67;;;;;22.75;49.76;100967.45;110689;1258;23128;-64
2022/07/30 11:06:16;;;;;;;;;7.00;6.67;;;;;22.75;50.39;100964.16;110697;1258;19598;-64
2022/07/30 11:08:44;;;;;;;;;6.00;6.00;;;;;22.82;50.50;100967.15;110670;1258;23519;-62
2022/07/30 11:11:11;;;;;;;;;6.00;6.00;;;;;22.82;50.67;100965.80;110635;1258;19234;-65
2022/07/30 11:13:38;;;;;;;;;7.00;7.00;;;;;22.91;51.12;100960.05;110718;1258;23055;-66
2022/07/30 11:16:06;;;;;;;;;7.00;7.00;;;;;23.04;51.30;100959.23;110729;1258;20839;-66